createdAt,value
2023-05-12T00:02:27.343Z,55.96
2023-05-12T00:07:31.427Z,55.85
2023-05-12T00:12:35.340Z,56.16
2023-05-12T00:17:39.398Z,56.10
2023-05-12T00:22:44.401Z,56.28
2023-05-12T00:27:49.039Z,56.39
2023-05-12T00:32:52.972Z,57.08
2023-05-12T00:37:57.209Z,57.13
2023-05-12T00:43:01.350Z,57.60
2023-05-12T00:48:07.764Z,57.79
2023-05-12T00:53:12.512Z,58.03
2023-05-12T00:58:16.895Z,58.39
2023-05-12T01:03:21.532Z,58.10
2023-05-12T01:08:26.291Z,58.46
2023-05-12T01:13:31.251Z,58.45
2023-05-12T01:18:38.060Z,58.66
2023-05-12T01:23:47.039Z,58.63
2023-05-12T01:28:52.166Z,58.76
2023-05-12T01:33:56.361Z,58.93
2023-05-12T01:39:00.673Z,58.68
2023-05-12T01:44:04.615Z,59.21
2023-05-12T01:49:08.436Z,58.88
2023-05-12T01:54:12.384Z,58.99
2023-05-12T01:59:16.216Z,59.47
2023-05-12T02:04:19.932Z,59.45
2023-05-12T02:09:23.752Z,59.75
2023-05-12T02:14:28.492Z,59.90
2023-05-12T02:19:32.827Z,60.29
2023-05-12T02:24:36.571Z,60.21
2023-05-12T02:29:41.592Z,60.34
2023-05-12T02:34:45.842Z,60.40
2023-05-12T02:39:50.093Z,60.53
2023-05-12T02:44:54.016Z,60.55
2023-05-12T02:50:00.981Z,61.04
2023-05-12T02:55:06.008Z,61.29
2023-05-12T03:00:12.232Z,61.50
2023-05-12T03:05:16.243Z,61.84
2023-05-12T03:10:20.469Z,62.42
2023-05-12T03:15:24.698Z,62.48
2023-05-12T03:20:28.877Z,62.88
2023-05-12T03:25:34.706Z,62.99
2023-05-12T03:30:38.731Z,63.17
2023-05-12T03:35:42.883Z,63.48
2023-05-12T03:40:52.006Z,63.81
2023-05-12T03:45:55.881Z,64.06
2023-05-12T03:50:59.845Z,64.13
2023-05-12T03:56:07.057Z,64.10
2023-05-12T04:01:09.878Z,64.06
2023-05-12T04:06:13.491Z,64.12
2023-05-12T04:11:17.527Z,64.20
2023-05-12T04:16:22.175Z,64.63
2023-05-12T04:21:26.193Z,64.97
2023-05-12T04:26:30.307Z,65.06
2023-05-12T04:31:34.205Z,65.08
2023-05-12T04:36:37.920Z,65.14
2023-05-12T04:41:41.879Z,65.23
2023-05-12T04:46:45.706Z,65.13
2023-05-12T04:51:49.842Z,65.09
2023-05-12T04:56:54.310Z,64.95
2023-05-12T05:01:59.229Z,65.39
2023-05-12T05:07:03.671Z,65.53
2023-05-12T05:12:09.032Z,65.17
2023-05-12T05:17:13.165Z,65.66
2023-05-12T05:22:17.527Z,65.46
2023-05-12T05:27:22.119Z,65.45
2023-05-12T05:32:26.391Z,65.34
2023-05-12T05:37:30.806Z,65.16
2023-05-12T05:42:34.618Z,64.96
2023-05-12T05:47:38.309Z,64.55
2023-05-12T05:52:42.171Z,63.90
2023-05-12T05:57:46.017Z,63.85
2023-05-12T06:02:49.877Z,63.46
2023-05-12T06:07:54.261Z,62.92
2023-05-12T06:12:57.996Z,62.84
2023-05-12T06:18:02.084Z,62.47
2023-05-12T06:23:06.370Z,61.40
2023-05-12T06:28:10.159Z,61.39
2023-05-12T06:33:14.942Z,61.06
2023-05-12T06:38:18.634Z,60.43
2023-05-12T06:43:22.960Z,59.89
2023-05-12T06:48:26.809Z,59.98
2023-05-12T06:53:31.939Z,60.07
2023-05-12T06:58:35.858Z,60.07
2023-05-12T07:03:39.968Z,59.89
2023-05-12T07:08:43.967Z,59.94
2023-05-12T07:13:48.257Z,60.04
2023-05-12T07:18:52.113Z,59.64
2023-05-12T07:23:56.041Z,59.52
2023-05-12T07:29:00.831Z,59.62
2023-05-12T07:34:05.592Z,58.36
2023-05-12T07:39:09.413Z,57.88
2023-05-12T07:44:13.108Z,58.05
2023-05-12T07:49:16.958Z,57.24
2023-05-12T07:54:20.661Z,56.83
2023-05-12T07:59:24.515Z,56.05
2023-05-12T08:04:28.534Z,55.43
2023-05-12T08:09:32.693Z,55.40
2023-05-12T08:14:37.420Z,53.08
2023-05-12T08:19:42.007Z,52.55
2023-05-12T08:24:46.487Z,52.00
2023-05-12T08:29:50.243Z,51.52
2023-05-12T08:34:54.815Z,50.38
2023-05-12T08:39:58.889Z,50.77
2023-05-12T08:45:04.138Z,50.22
2023-05-12T08:50:11.208Z,49.28
2023-05-12T08:55:15.484Z,47.65
2023-05-12T09:00:22.341Z,47.28
2023-05-12T09:05:29.375Z,47.07
2023-05-12T09:10:35.501Z,46.35
2023-05-12T09:15:44.926Z,46.65
2023-05-12T09:20:48.825Z,44.32
2023-05-12T09:26:01.168Z,44.88
2023-05-12T09:31:16.248Z,44.48
2023-05-12T09:36:21.311Z,42.94
2023-05-12T09:41:25.418Z,42.85
2023-05-12T09:46:29.673Z,42.68
2023-05-12T09:51:33.474Z,42.34
2023-05-12T09:56:38.755Z,42.02
2023-05-12T10:01:43.036Z,43.38
2023-05-12T10:06:47.697Z,42.80
2023-05-12T10:11:53.789Z,43.46
2023-05-12T10:16:57.717Z,43.12
2023-05-12T10:22:02.859Z,42.82
2023-05-12T10:27:08.206Z,42.85
2023-05-12T10:32:12.595Z,42.34
2023-05-12T10:37:16.958Z,41.99
2023-05-12T10:48:09.514Z,41.27
2023-05-12T10:53:13.718Z,41.76
2023-05-12T10:58:19.537Z,40.87
2023-05-12T11:03:25.599Z,40.30
2023-05-12T11:08:32.433Z,40.74
2023-05-12T11:13:36.970Z,40.98
2023-05-12T11:18:40.803Z,41.25
2023-05-12T11:23:50.196Z,41.81
2023-05-12T11:28:54.208Z,42.04
2023-05-12T11:34:11.858Z,42.48
2023-05-12T11:39:18.354Z,42.45
2023-05-12T11:44:23.602Z,42.23
2023-05-12T11:49:28.661Z,41.40
2023-05-12T11:54:32.595Z,41.55
2023-05-12T11:59:36.838Z,41.53
2023-05-12T12:04:41.927Z,41.21
2023-05-12T12:09:45.792Z,41.00
2023-05-12T12:14:49.652Z,39.97
2023-05-12T12:19:53.632Z,40.32
2023-05-12T12:24:57.610Z,40.20
2023-05-12T12:30:02.007Z,40.84
2023-05-12T12:35:07.586Z,40.51
2023-05-12T12:40:12.995Z,40.66
2023-05-12T12:45:19.357Z,40.61
2023-05-12T12:50:26.441Z,40.37
2023-05-12T12:55:31.497Z,39.40
2023-05-12T13:00:36.176Z,40.03
2023-05-12T13:05:40.174Z,40.36
2023-05-12T13:10:43.972Z,39.86
2023-05-12T13:15:50.052Z,40.07
2023-05-12T13:20:54.163Z,40.47
2023-05-12T13:25:58.805Z,40.35
2023-05-12T13:31:02.711Z,40.77
2023-05-12T13:36:08.316Z,39.18
2023-05-12T13:41:12.415Z,39.00
2023-05-12T13:46:16.130Z,38.50
2023-05-12T13:51:20.787Z,38.14
2023-05-12T13:56:25.226Z,36.89
2023-05-12T14:01:31.011Z,37.30
2023-05-12T14:06:36.145Z,36.85
2023-05-12T14:11:40.691Z,37.05
2023-05-12T14:16:44.792Z,37.39
2023-05-12T14:21:49.362Z,37.20
2023-05-12T14:26:54.338Z,37.33
2023-05-12T14:31:59.379Z,36.94
2023-05-12T14:37:03.283Z,36.89
2023-05-12T14:42:08.535Z,36.86
2023-05-12T14:47:12.465Z,37.33
2023-05-12T14:52:16.304Z,38.01
2023-05-12T14:57:20.678Z,37.60
2023-05-12T15:02:24.879Z,37.81
2023-05-12T15:07:29.588Z,37.48
2023-05-12T15:12:33.578Z,37.32
2023-05-12T15:17:38.128Z,37.41
2023-05-12T15:22:42.221Z,37.27
2023-05-12T15:27:46.183Z,37.63
2023-05-12T15:32:50.465Z,37.94
2023-05-12T15:37:54.349Z,37.99
2023-05-12T15:42:58.545Z,38.13
2023-05-12T15:48:02.757Z,38.71
2023-05-12T15:53:07.162Z,38.41
2023-05-12T15:58:11.523Z,38.14
2023-05-12T16:03:15.501Z,38.32
2023-05-12T16:08:20.323Z,38.66
2023-05-12T16:13:24.305Z,38.99
2023-05-12T16:18:30.144Z,38.59
2023-05-12T16:23:33.796Z,38.35
2023-05-12T16:28:37.566Z,38.74
2023-05-12T16:33:41.466Z,39.02
2023-05-12T16:38:45.549Z,39.10
2023-05-12T16:43:49.922Z,39.06
2023-05-12T16:48:54.035Z,39.52
2023-05-12T16:53:57.898Z,39.53
2023-05-12T16:59:02.220Z,39.72
2023-05-12T17:04:07.351Z,40.23
2023-05-12T17:09:11.288Z,40.45
2023-05-12T17:14:16.232Z,40.31
2023-05-12T17:19:21.751Z,40.41
2023-05-12T17:24:26.347Z,40.56
2023-05-12T17:29:31.216Z,40.67
2023-05-12T17:34:35.638Z,40.96
2023-05-12T17:39:41.605Z,40.77
2023-05-12T17:44:46.139Z,41.02
2023-05-12T17:49:50.033Z,41.12
2023-05-12T17:54:56.547Z,41.46
2023-05-12T18:00:03.544Z,42.18
2023-05-12T18:05:09.411Z,42.44
2023-05-12T18:10:13.799Z,42.43
2023-05-12T18:15:19.395Z,43.01
2023-05-12T18:20:23.360Z,43.42
2023-05-12T18:25:27.693Z,43.55
2023-05-12T18:30:31.750Z,43.87
2023-05-12T18:35:35.568Z,44.02
2023-05-12T18:40:40.129Z,44.46
2023-05-12T18:45:43.817Z,44.60
2023-05-12T18:50:47.718Z,44.93
2023-05-12T18:55:51.490Z,45.11
2023-05-12T19:00:55.232Z,45.38
2023-05-12T19:05:59.765Z,45.49
2023-05-12T19:11:03.746Z,45.59
2023-05-12T19:16:08.140Z,45.89
2023-05-12T19:21:12.883Z,45.70
2023-05-12T19:26:16.746Z,45.92
2023-05-12T19:31:20.559Z,46.39
2023-05-12T19:36:24.395Z,46.33
2023-05-12T19:41:28.964Z,46.51
2023-05-12T19:46:33.368Z,46.62
2023-05-12T19:51:37.711Z,46.58
2023-05-12T19:56:41.465Z,46.37
2023-05-12T20:01:45.557Z,46.29
2023-05-12T20:06:50.130Z,46.46
2023-05-12T20:11:54.641Z,46.75
2023-05-12T20:17:05.072Z,46.74
2023-05-12T20:22:10.038Z,46.60
2023-05-12T20:27:13.882Z,46.48
2023-05-12T20:32:17.732Z,46.82
2023-05-12T20:37:21.939Z,46.85
2023-05-12T20:42:25.788Z,46.92
2023-05-12T20:47:30.443Z,46.90
2023-05-12T20:52:36.500Z,47.05
2023-05-12T20:57:41.018Z,47.21
2023-05-12T21:02:45.249Z,47.22
2023-05-12T21:07:49.684Z,47.47
2023-05-12T21:12:53.547Z,47.63
2023-05-12T21:17:58.455Z,47.70
2023-05-12T21:23:02.920Z,47.76
2023-05-12T21:28:07.175Z,48.00
2023-05-12T21:33:11.179Z,48.17
2023-05-12T21:38:15.229Z,48.24
2023-05-12T21:43:19.028Z,48.57
2023-05-12T21:48:24.364Z,48.82
2023-05-12T21:53:29.032Z,48.98
2023-05-12T21:58:33.103Z,49.09
2023-05-12T22:03:37.491Z,49.53
2023-05-12T22:08:41.853Z,49.87
2023-05-12T22:13:45.748Z,50.00
2023-05-12T22:18:49.552Z,50.38
2023-05-12T22:23:53.818Z,50.62
2023-05-12T22:28:57.581Z,50.65
2023-05-12T22:34:01.615Z,51.06
2023-05-12T22:39:05.721Z,51.20
2023-05-12T22:44:09.624Z,51.51
2023-05-12T22:49:13.438Z,51.95
2023-05-12T22:54:17.184Z,52.10
2023-05-12T22:59:20.909Z,52.20
2023-05-12T23:04:25.155Z,52.64
2023-05-12T23:09:29.348Z,52.79
2023-05-12T23:14:33.568Z,53.08
2023-05-12T23:19:39.031Z,53.15
2023-05-12T23:24:43.810Z,53.79
2023-05-12T23:29:47.694Z,54.28
2023-05-12T23:34:51.680Z,54.29
2023-05-12T23:39:55.826Z,54.37
2023-05-12T23:45:00.415Z,54.57
2023-05-12T23:50:06.480Z,54.87
2023-05-12T23:55:11.655Z,55.35
